Terminal Aerodrome Forecast
Issued by NWS Central Illinois

Home | Current Version | Previous Version | Text Only | Print | Product List | Glossary On
Versions: 1 2 3 4 5 6 7 8 9 10 11 12 13 14 15
000
FTUS43 KILX 011700 RRA
TAFPIA
TAF
KPIA 011746Z 0118/0218 05008KT 1/2SM SN FG OVC004
      TEMPO 0119/0121 3SM -SN BR
     FM012100 03012G22KT 2SM -SN BR OVC004
     FM020200 35017G25KT 4SM -SN BLSN OVC009
     FM020800 34012KT P6SM OVC017
     FM021300 33007KT P6SM SCT020=

USA.gov is the U.S. government's official web portal to all federal, state and local government web resources and services.